Terminal Aerodrome Forecast
Issued by NWS Topeka, KS

Home | Current Version | Previous Version | Text Only | Print | Product List | Glossary Off
Versions: 1 2 3 4 5 6 7 8 9 10 11 12 13 14 15 16 17 18 19 20

037
FTUS43 KTOP 131142
TAFTOP
TAF
KTOP 131142Z 1312/1412 05008KT P6SM BKN200
     FM131900 06008KT P6SM OVC025
     FM140600 02005KT P6SM OVC016=

USA.gov is the U.S. government's official web portal to all federal, state and local government web resources and services.